createdAt,value
2023-02-07T00:02:51.250Z,5.70
2023-02-07T00:05:38.355Z,7.00
2023-02-07T00:08:24.924Z,4.67
2023-02-07T00:11:16.509Z,6.20
2023-02-07T00:14:03.143Z,6.13
2023-02-07T00:16:49.426Z,4.20
2023-02-07T00:19:35.967Z,6.00
2023-02-07T00:22:22.410Z,7.00
2023-02-07T00:25:08.788Z,4.80
2023-02-07T00:27:55.141Z,4.37
2023-02-07T00:30:41.675Z,8.43
2023-02-07T00:33:28.190Z,5.23
2023-02-07T00:36:17.879Z,5.43
2023-02-07T00:39:07.945Z,7.50
2023-02-07T00:41:54.463Z,5.93
2023-02-07T00:44:40.745Z,6.17
2023-02-07T00:47:27.258Z,4.80
2023-02-07T00:50:14.123Z,7.03
2023-02-07T00:53:00.516Z,8.03
2023-02-07T00:55:46.938Z,7.50
2023-02-07T00:58:33.519Z,7.53
2023-02-07T01:01:20.548Z,6.20
2023-02-07T01:04:07.081Z,7.47
2023-02-07T01:06:53.429Z,7.03
2023-02-07T01:09:39.916Z,6.43
2023-02-07T01:12:26.383Z,8.13
2023-02-07T01:15:13.008Z,6.73
2023-02-07T01:17:59.493Z,8.17
2023-02-07T01:20:45.969Z,12.20
2023-02-07T01:23:32.504Z,9.83
2023-02-07T01:26:18.803Z,8.60
2023-02-07T01:29:05.355Z,9.80
2023-02-07T01:31:52.315Z,11.17
2023-02-07T01:34:39.082Z,8.17
2023-02-07T01:37:25.760Z,11.73
2023-02-07T01:40:12.996Z,10.23
2023-02-07T01:42:59.287Z,8.80
2023-02-07T01:45:45.567Z,10.20
2023-02-07T01:48:35.694Z,8.40
2023-02-07T01:51:23.322Z,9.80
2023-02-07T01:54:12.891Z,7.53
2023-02-07T01:57:05.983Z,9.03
2023-02-07T01:59:55.666Z,10.97
2023-02-07T02:02:43.150Z,11.50
2023-02-07T02:05:32.353Z,10.80
2023-02-07T02:08:19.931Z,14.53
2023-02-07T02:11:21.564Z,9.20
2023-02-07T02:14:38.491Z,10.60
2023-02-07T02:17:36.574Z,12.73
2023-02-07T02:20:53.977Z,15.90
2023-02-07T02:24:07.720Z,11.73
2023-02-07T02:27:25.180Z,13.73
2023-02-07T02:30:23.864Z,10.57
2023-02-07T02:33:32.205Z,11.20
2023-02-07T02:36:40.598Z,8.73
2023-02-07T02:40:02.072Z,10.10
2023-02-07T02:43:17.794Z,10.90
2023-02-07T02:46:12.142Z,14.03
2023-02-07T02:49:00.281Z,11.17
2023-02-07T02:51:51.109Z,11.73
2023-02-07T02:54:39.649Z,10.27
2023-02-07T02:58:09.756Z,13.70
2023-02-07T03:01:18.986Z,8.30
2023-02-07T03:04:39.008Z,9.37
2023-02-07T03:07:25.538Z,12.43
2023-02-07T03:10:11.976Z,14.20
2023-02-07T03:13:07.098Z,11.43
2023-02-07T03:16:16.368Z,11.17
2023-02-07T03:19:24.195Z,14.63
2023-02-07T03:22:14.177Z,13.37
2023-02-07T03:25:05.592Z,10.53
2023-02-07T03:27:55.956Z,11.10
2023-02-07T03:30:45.905Z,15.00
2023-02-07T03:33:33.119Z,11.87
2023-02-07T03:36:31.894Z,12.73
2023-02-07T03:39:18.692Z,13.70
2023-02-07T03:42:14.162Z,11.00
2023-02-07T03:45:02.430Z,10.03
2023-02-07T03:47:49.147Z,10.90
2023-02-07T03:50:36.056Z,11.57
2023-02-07T03:53:22.640Z,11.43
2023-02-07T03:56:08.951Z,12.43
2023-02-07T03:58:55.692Z,13.63
2023-02-07T04:01:42.591Z,10.73
2023-02-07T04:04:29.486Z,13.93
2023-02-07T04:07:15.791Z,16.37
2023-02-07T04:10:03.257Z,14.43
2023-02-07T04:12:49.575Z,11.80
2023-02-07T04:15:35.850Z,13.80
2023-02-07T04:18:22.663Z,19.60
2023-02-07T04:21:09.538Z,17.87
2023-02-07T04:23:55.821Z,15.30
2023-02-07T04:26:42.301Z,15.57
2023-02-07T04:29:28.541Z,16.13
2023-02-07T04:32:15.038Z,15.43
2023-02-07T04:35:01.269Z,15.50
2023-02-07T04:37:47.931Z,17.47
2023-02-07T04:40:34.437Z,17.07
2023-02-07T04:43:20.556Z,18.97
2023-02-07T04:46:08.165Z,18.00
2023-02-07T04:48:54.388Z,15.23
2023-02-07T04:51:40.986Z,14.07
2023-02-07T04:54:27.382Z,18.90
2023-02-07T04:57:13.952Z,17.37
2023-02-07T05:00:00.292Z,15.33
2023-02-07T05:02:46.724Z,21.00
2023-02-07T05:05:33.015Z,16.20
2023-02-07T05:08:19.349Z,13.20
2023-02-07T05:11:05.793Z,16.50
2023-02-07T05:13:51.883Z,17.03
2023-02-07T05:16:38.296Z,17.93
2023-02-07T05:19:24.533Z,17.97
2023-02-07T05:22:10.811Z,18.27
2023-02-07T05:24:57.128Z,17.23
2023-02-07T05:27:43.541Z,14.40
2023-02-07T05:30:30.041Z,16.13
2023-02-07T05:33:16.571Z,15.57
2023-02-07T05:36:03.018Z,16.43
2023-02-07T05:38:49.771Z,16.17
2023-02-07T05:41:36.213Z,17.97
2023-02-07T05:44:22.784Z,16.07
2023-02-07T05:47:09.007Z,16.60
2023-02-07T05:49:55.294Z,16.40
2023-02-07T05:52:41.674Z,15.17
2023-02-07T05:55:27.844Z,16.23
2023-02-07T05:58:14.096Z,20.63
2023-02-07T06:01:00.360Z,27.20
2023-02-07T06:03:46.449Z,16.07
2023-02-07T06:06:32.927Z,14.73
2023-02-07T06:09:19.446Z,17.50
2023-02-07T06:12:06.167Z,17.57
2023-02-07T06:14:52.250Z,28.93
2023-02-07T06:17:38.676Z,19.03
2023-02-07T06:20:24.956Z,18.73
2023-02-07T06:23:12.357Z,17.97
2023-02-07T06:25:58.628Z,18.60
2023-02-07T06:28:44.806Z,19.60
2023-02-07T06:31:31.433Z,17.97
2023-02-07T06:34:18.146Z,17.13
2023-02-07T06:37:04.581Z,19.83
2023-02-07T06:39:51.212Z,19.03
2023-02-07T06:42:37.635Z,17.93
2023-02-07T06:45:24.176Z,22.43
2023-02-07T06:48:10.817Z,23.80
2023-02-07T06:50:57.379Z,19.40
2023-02-07T06:53:43.787Z,19.10
2023-02-07T06:56:30.430Z,21.90
2023-02-07T06:59:17.037Z,24.00
2023-02-07T07:02:04.042Z,18.40
2023-02-07T07:04:50.720Z,24.23
2023-02-07T07:07:36.927Z,18.60
2023-02-07T07:10:23.377Z,20.93
2023-02-07T07:13:09.572Z,17.10
2023-02-07T07:15:55.930Z,21.00
2023-02-07T07:18:42.363Z,23.00
2023-02-07T07:21:28.685Z,19.13
2023-02-07T07:24:14.974Z,17.90
2023-02-07T07:27:01.509Z,21.73
2023-02-07T07:29:47.710Z,18.17
2023-02-07T07:32:34.668Z,17.63
2023-02-07T07:35:21.555Z,16.10
2023-02-07T07:38:08.223Z,19.00
2023-02-07T07:40:55.055Z,19.07
2023-02-07T07:43:41.307Z,18.43
2023-02-07T07:46:27.516Z,20.10
2023-02-07T07:49:14.010Z,17.93
2023-02-07T07:52:00.091Z,14.53
2023-02-07T07:54:46.525Z,17.47
2023-02-07T07:57:32.837Z,15.27
2023-02-07T08:00:19.705Z,15.00
2023-02-07T08:03:06.078Z,14.17
2023-02-07T08:05:52.558Z,12.20
2023-02-07T08:08:39.381Z,14.57
2023-02-07T08:11:25.942Z,12.53
2023-02-07T08:14:12.499Z,14.20
2023-02-07T08:16:59.001Z,11.30
2023-02-07T08:19:45.286Z,8.57
2023-02-07T08:22:32.004Z,11.57
2023-02-07T08:25:18.648Z,8.47
2023-02-07T08:28:05.071Z,10.27
2023-02-07T08:30:51.704Z,8.87
2023-02-07T08:33:38.429Z,9.73
2023-02-07T08:36:25.478Z,9.60
2023-02-07T08:39:11.877Z,11.40
2023-02-07T08:41:58.535Z,10.53
2023-02-07T08:44:45.063Z,6.50
2023-02-07T08:47:31.977Z,13.53
2023-02-07T08:50:18.890Z,11.70
2023-02-07T08:53:05.007Z,11.40
2023-02-07T08:55:51.926Z,9.70
2023-02-07T08:58:39.920Z,13.80
2023-02-07T09:01:27.001Z,13.13
2023-02-07T09:04:13.383Z,8.53
2023-02-07T09:06:59.775Z,11.33
2023-02-07T09:09:46.402Z,9.10
2023-02-07T09:12:37.140Z,14.27
2023-02-07T09:15:23.764Z,7.87
2023-02-07T09:18:10.342Z,13.90
2023-02-07T09:20:56.639Z,8.23
2023-02-07T09:23:42.900Z,9.33
2023-02-07T09:26:32.186Z,12.23
2023-02-07T09:29:18.785Z,10.30
2023-02-07T09:32:05.541Z,12.70
2023-02-07T09:34:52.332Z,9.53
2023-02-07T09:37:48.760Z,13.27
2023-02-07T09:40:36.967Z,10.00
2023-02-07T09:43:39.514Z,13.20
2023-02-07T09:46:34.698Z,11.70
2023-02-07T09:49:41.531Z,9.57
2023-02-07T09:52:37.183Z,9.07
2023-02-07T09:55:42.279Z,10.80
2023-02-07T09:58:39.884Z,10.43
2023-02-07T10:01:37.518Z,10.90
2023-02-07T10:04:31.868Z,12.43
2023-02-07T10:07:18.525Z,11.53
2023-02-07T10:10:39.450Z,10.43
2023-02-07T10:13:47.638Z,11.43
2023-02-07T10:16:46.065Z,11.33
2023-02-07T10:19:53.475Z,8.50
2023-02-07T10:22:59.189Z,8.63
2023-02-07T10:25:48.769Z,9.77
2023-02-07T10:28:44.796Z,15.97
2023-02-07T10:31:33.489Z,10.87
2023-02-07T10:34:23.912Z,10.80
2023-02-07T10:37:20.266Z,8.30
2023-02-07T10:40:18.709Z,8.70
2023-02-07T10:43:13.008Z,10.67
2023-02-07T10:46:06.364Z,10.33
2023-02-07T10:48:53.356Z,9.43
2023-02-07T10:51:44.149Z,9.63
2023-02-07T10:54:50.281Z,9.83
2023-02-07T10:57:37.493Z,12.17
2023-02-07T11:00:28.440Z,9.97
2023-02-07T11:03:24.519Z,10.97
2023-02-07T11:06:14.723Z,10.20
2023-02-07T11:09:21.542Z,10.57
2023-02-07T11:12:34.240Z,9.37
2023-02-07T11:15:26.123Z,9.93
2023-02-07T11:18:31.254Z,10.33
2023-02-07T11:21:31.589Z,10.37
2023-02-07T11:24:33.981Z,9.30
2023-02-07T11:27:22.405Z,11.27
2023-02-07T11:30:20.481Z,8.93
2023-02-07T11:33:19.275Z,9.53
2023-02-07T11:36:09.867Z,7.87
2023-02-07T11:38:59.402Z,13.07
2023-02-07T11:41:55.764Z,10.70
2023-02-07T11:44:43.651Z,12.17
2023-02-07T11:47:31.127Z,10.57
2023-02-07T11:50:24.611Z,12.00
2023-02-07T11:53:27.226Z,10.17
2023-02-07T11:56:29.582Z,7.83
2023-02-07T11:59:26.787Z,11.97
2023-02-07T12:02:25.408Z,8.43
2023-02-07T12:05:41.095Z,8.00
2023-02-07T12:08:31.023Z,9.57
2023-02-07T12:11:24.060Z,8.87
2023-02-07T12:14:35.457Z,10.17
2023-02-07T12:17:29.480Z,11.63
2023-02-07T12:20:26.782Z,10.13
2023-02-07T12:23:41.626Z,9.83
2023-02-07T12:26:44.338Z,13.60
2023-02-07T12:30:09.135Z,9.30
2023-02-07T12:32:58.655Z,9.60
2023-02-07T12:36:11.233Z,11.47
2023-02-07T12:39:06.766Z,7.77
2023-02-07T12:42:06.692Z,7.67
2023-02-07T12:44:57.499Z,8.30
2023-02-07T12:47:55.829Z,6.93
2023-02-07T12:50:42.008Z,8.33
2023-02-07T12:53:39.136Z,8.93
2023-02-07T12:56:52.984Z,7.93
2023-02-07T12:59:50.504Z,7.93
2023-02-07T13:03:01.765Z,6.27
2023-02-07T13:06:11.694Z,14.67
2023-02-07T13:09:09.959Z,9.43
2023-02-07T13:12:23.433Z,7.40
2023-02-07T13:15:26.757Z,7.97
2023-02-07T13:18:22.202Z,7.40
2023-02-07T13:21:26.183Z,8.93
2023-02-07T13:24:16.933Z,9.40
2023-02-07T13:27:17.384Z,6.47
2023-02-07T13:30:04.189Z,7.87
2023-02-07T13:32:50.943Z,5.77
2023-02-07T13:35:39.403Z,7.80
2023-02-07T13:38:28.927Z,7.57
2023-02-07T13:41:34.981Z,45.40
2023-02-07T13:44:50.682Z,7.93
2023-02-07T13:47:47.927Z,6.47
2023-02-07T13:51:04.632Z,7.00
2023-02-07T13:54:13.449Z,6.50
2023-02-07T13:57:20.807Z,7.67
2023-02-07T14:00:17.485Z,6.63
2023-02-07T14:03:08.910Z,4.50
2023-02-07T14:06:25.665Z,4.03
2023-02-07T14:09:15.125Z,5.30
2023-02-07T14:12:20.386Z,5.47
2023-02-07T14:15:30.465Z,8.30
2023-02-07T14:18:47.989Z,9.33
2023-02-07T14:21:40.026Z,4.27
2023-02-07T14:24:33.085Z,5.07
2023-02-07T14:27:37.614Z,4.33
2023-02-07T14:30:59.262Z,6.10
2023-02-07T14:34:10.318Z,5.83
2023-02-07T14:36:57.206Z,6.53
2023-02-07T14:39:43.760Z,5.23
2023-02-07T14:42:30.186Z,6.77
2023-02-07T14:45:22.255Z,5.77
2023-02-07T14:48:41.269Z,6.10
2023-02-07T14:51:42.455Z,4.93
2023-02-07T14:54:37.815Z,4.67
2023-02-07T14:57:50.341Z,5.27
2023-02-07T15:00:49.270Z,6.63
2023-02-07T15:03:35.738Z,6.27
2023-02-07T15:06:32.253Z,6.27
2023-02-07T15:09:28.167Z,6.03
2023-02-07T15:12:27.333Z,7.13
2023-02-07T15:15:20.594Z,7.87
2023-02-07T15:18:13.597Z,8.40
2023-02-07T15:21:01.396Z,6.43
2023-02-07T15:24:49.667Z,5.33
2023-02-07T15:27:37.684Z,4.80
2023-02-07T15:30:24.375Z,6.30
2023-02-07T15:33:13.181Z,5.33
2023-02-07T15:35:59.482Z,5.10
2023-02-07T15:38:47.048Z,3.97
2023-02-07T15:41:34.473Z,7.13
2023-02-07T15:44:34.088Z,6.53
2023-02-07T15:47:29.683Z,6.03
2023-02-07T15:50:25.377Z,5.20
2023-02-07T15:53:21.560Z,4.23
2023-02-07T15:56:08.394Z,6.73
2023-02-07T15:58:59.654Z,4.87
2023-02-07T16:01:54.129Z,5.10
2023-02-07T16:04:40.610Z,4.20
2023-02-07T16:07:27.242Z,5.43
2023-02-07T16:10:24.303Z,8.83
2023-02-07T16:13:16.629Z,5.73
2023-02-07T16:16:18.930Z,4.67
2023-02-07T16:19:14.369Z,5.03
2023-02-07T16:22:10.855Z,5.93
2023-02-07T16:25:01.528Z,5.07
2023-02-07T16:27:50.608Z,4.20
2023-02-07T16:30:39.283Z,7.07
2023-02-07T16:33:26.270Z,8.10
2023-02-07T16:36:17.485Z,6.27
2023-02-07T16:39:04.213Z,4.17
2023-02-07T16:41:54.722Z,10.67
2023-02-07T16:44:41.741Z,9.00
2023-02-07T16:47:28.334Z,5.07
2023-02-07T16:50:16.341Z,6.90
2023-02-07T16:53:02.560Z,5.93
2023-02-07T16:55:49.062Z,7.60
2023-02-07T16:58:35.440Z,4.57
2023-02-07T17:01:22.525Z,9.60
2023-02-07T17:04:12.248Z,8.23
2023-02-07T17:06:58.791Z,4.63
2023-02-07T17:09:49.233Z,2.73
2023-02-07T17:12:35.861Z,5.30
2023-02-07T17:15:22.402Z,3.53
2023-02-07T17:18:11.893Z,4.93
2023-02-07T17:20:58.080Z,24.03
2023-02-07T17:23:46.295Z,6.10
2023-02-07T17:26:32.835Z,7.87
2023-02-07T17:29:20.249Z,11.50
2023-02-07T17:32:07.115Z,8.37
2023-02-07T17:34:53.219Z,6.37
2023-02-07T17:37:40.079Z,7.43
2023-02-07T17:40:34.395Z,6.60
2023-02-07T17:43:21.640Z,8.63
2023-02-07T17:46:18.767Z,6.50
2023-02-07T17:49:12.781Z,3.97
2023-02-07T17:51:59.256Z,6.07
2023-02-07T17:54:45.952Z,4.70
2023-02-07T17:57:32.499Z,5.07
2023-02-07T18:00:26.506Z,7.10
2023-02-07T18:03:12.873Z,5.17
2023-02-07T18:05:59.335Z,7.67
2023-02-07T18:08:46.192Z,7.97
2023-02-07T18:11:34.519Z,7.80
2023-02-07T18:14:20.892Z,5.40
2023-02-07T18:17:07.106Z,6.13
2023-02-07T18:19:53.497Z,6.17
2023-02-07T18:22:39.561Z,4.53
2023-02-07T18:25:28.427Z,10.17
2023-02-07T18:28:14.972Z,6.53
2023-02-07T18:31:01.685Z,5.37
2023-02-07T18:33:49.007Z,5.13
2023-02-07T18:36:40.107Z,11.63
2023-02-07T18:39:26.831Z,7.90
2023-02-07T18:42:17.347Z,5.73
2023-02-07T18:45:03.937Z,9.40
2023-02-07T18:47:50.800Z,8.67
2023-02-07T18:50:41.551Z,7.23
2023-02-07T18:53:28.202Z,8.20
2023-02-07T18:56:18.768Z,7.93
2023-02-07T18:59:05.245Z,9.03
2023-02-07T19:01:53.516Z,11.77
2023-02-07T19:04:40.779Z,19.40
2023-02-07T19:07:27.179Z,11.23
2023-02-07T19:10:16.339Z,10.33
2023-02-07T19:13:02.864Z,8.43
2023-02-07T19:15:49.114Z,9.57
2023-02-07T19:18:35.492Z,8.50
2023-02-07T19:21:27.268Z,8.77
2023-02-07T19:24:15.824Z,11.30
2023-02-07T19:27:01.936Z,6.87
2023-02-07T19:29:48.328Z,10.50
2023-02-07T19:32:34.606Z,11.60
2023-02-07T19:35:20.919Z,8.30
2023-02-07T19:38:07.172Z,12.40
2023-02-07T19:40:57.666Z,11.40
2023-02-07T19:43:43.982Z,10.30
2023-02-07T19:46:30.594Z,11.77
2023-02-07T19:49:17.056Z,11.33
2023-02-07T19:52:03.703Z,12.80
2023-02-07T19:54:50.080Z,12.87
2023-02-07T19:57:36.308Z,9.40
2023-02-07T20:00:22.948Z,13.07
2023-02-07T20:03:09.035Z,8.30
2023-02-07T20:05:58.587Z,7.30
2023-02-07T20:08:44.981Z,12.30
2023-02-07T20:11:31.448Z,9.50
2023-02-07T20:14:17.804Z,16.77
2023-02-07T20:17:04.154Z,14.80
2023-02-07T20:19:50.320Z,12.57
2023-02-07T20:22:36.899Z,10.40
2023-02-07T20:25:23.177Z,14.10
2023-02-07T20:28:09.736Z,14.30
2023-02-07T20:30:56.374Z,12.87
2023-02-07T20:33:45.063Z,14.30
2023-02-07T20:36:33.546Z,15.50
2023-02-07T20:39:21.875Z,13.07
2023-02-07T20:42:08.567Z,17.20
2023-02-07T20:44:55.084Z,14.60
2023-02-07T20:47:41.466Z,13.40
2023-02-07T20:50:27.905Z,17.43
2023-02-07T20:53:14.247Z,17.53
2023-02-07T20:56:09.720Z,17.80
2023-02-07T20:58:57.969Z,16.00
2023-02-07T21:01:44.633Z,18.17
2023-02-07T21:04:31.219Z,18.37
2023-02-07T21:07:17.593Z,23.47
2023-02-07T21:10:05.124Z,25.60
2023-02-07T21:12:51.411Z,18.93
2023-02-07T21:15:37.610Z,16.20
2023-02-07T21:18:23.931Z,16.00
2023-02-07T21:21:10.108Z,14.33
2023-02-07T21:23:57.586Z,16.30
2023-02-07T21:26:47.921Z,18.93
2023-02-07T21:29:36.293Z,13.23
2023-02-07T21:32:22.898Z,15.70
2023-02-07T21:35:09.261Z,17.90
2023-02-07T21:37:55.509Z,17.37
2023-02-07T21:40:44.007Z,14.80
2023-02-07T21:43:30.613Z,14.67
2023-02-07T21:46:22.965Z,18.20
2023-02-07T21:49:16.974Z,16.90
2023-02-07T21:52:03.297Z,19.03
2023-02-07T21:54:49.656Z,16.17
2023-02-07T21:57:35.860Z,13.80
2023-02-07T22:00:21.939Z,16.33
2023-02-07T22:03:08.458Z,19.30
2023-02-07T22:05:54.837Z,23.47
2023-02-07T22:08:52.765Z,19.53
2023-02-07T22:11:39.210Z,20.77
2023-02-07T22:14:25.905Z,17.10
2023-02-07T22:17:12.336Z,17.90
2023-02-07T22:19:58.509Z,16.80
2023-02-07T22:22:44.996Z,18.90
2023-02-07T22:25:31.310Z,21.80
2023-02-07T22:28:17.837Z,17.17
2023-02-07T22:31:16.767Z,16.90
2023-02-07T22:34:09.849Z,15.10
2023-02-07T22:36:56.096Z,16.37
2023-02-07T22:39:42.477Z,18.20
2023-02-07T22:42:28.675Z,18.10
2023-02-07T22:45:14.918Z,17.17
2023-02-07T22:48:01.177Z,16.87
2023-02-07T22:50:47.774Z,15.43
2023-02-07T22:53:34.477Z,16.53
2023-02-07T22:56:21.409Z,14.13
2023-02-07T22:59:08.257Z,18.37
2023-02-07T23:01:54.565Z,16.83
2023-02-07T23:04:40.641Z,13.57
2023-02-07T23:07:26.956Z,13.83
2023-02-07T23:10:13.317Z,14.90
2023-02-07T23:13:00.243Z,18.47
2023-02-07T23:15:47.504Z,14.50
2023-02-07T23:18:34.145Z,18.33
2023-02-07T23:21:21.951Z,17.60
2023-02-07T23:24:08.837Z,19.87
2023-02-07T23:26:55.446Z,19.43
2023-02-07T23:29:41.999Z,18.73
2023-02-07T23:32:28.536Z,15.20
2023-02-07T23:35:14.866Z,19.87
2023-02-07T23:38:02.363Z,16.70
2023-02-07T23:40:49.078Z,15.07
2023-02-07T23:43:37.098Z,17.87
2023-02-07T23:46:23.550Z,20.97
2023-02-07T23:49:10.345Z,16.00
2023-02-07T23:51:56.945Z,16.37
2023-02-07T23:54:43.257Z,22.43
2023-02-07T23:57:29.794Z,18.73
